sensor_id;sensor_type;location;lat;lon;timestamp;P1;durP1;ratioP1;P2;durP2;ratioP2
6223;SDS011;3145;42.726;23.342;2023-12-20T00:00:29;311.33;;;169.00;;
6223;SDS011;3145;42.726;23.342;2023-12-20T00:02:56;312.57;;;168.90;;
6223;SDS011;3145;42.726;23.342;2023-12-20T00:05:23;288.43;;;157.93;;
6223;SDS011;3145;42.726;23.342;2023-12-20T00:07:50;303.70;;;159.90;;
6223;SDS011;3145;42.726;23.342;2023-12-20T00:10:16;290.77;;;160.37;;
6223;SDS011;3145;42.726;23.342;2023-12-20T00:12:43;287.07;;;158.17;;
6223;SDS011;3145;42.726;23.342;2023-12-20T00:15:10;316.30;;;162.10;;
6223;SDS011;3145;42.726;23.342;2023-12-20T00:17:38;316.97;;;156.47;;
6223;SDS011;3145;42.726;23.342;2023-12-20T00:20:05;299.60;;;151.17;;
6223;SDS011;3145;42.726;23.342;2023-12-20T00:22:32;312.23;;;145.27;;
6223;SDS011;3145;42.726;23.342;2023-12-20T00:24:59;373.30;;;150.87;;
6223;SDS011;3145;42.726;23.342;2023-12-20T00:27:26;377.03;;;148.83;;
6223;SDS011;3145;42.726;23.342;2023-12-20T00:29:52;369.43;;;153.77;;
6223;SDS011;3145;42.726;23.342;2023-12-20T00:32:19;378.27;;;174.93;;
6223;SDS011;3145;42.726;23.342;2023-12-20T00:34:47;456.83;;;188.27;;
6223;SDS011;3145;42.726;23.342;2023-12-20T00:37:14;447.03;;;193.53;;
6223;SDS011;3145;42.726;23.342;2023-12-20T00:39:41;450.97;;;201.57;;
6223;SDS011;3145;42.726;23.342;2023-12-20T00:42:09;449.43;;;191.60;;
6223;SDS011;3145;42.726;23.342;2023-12-20T00:44:35;435.50;;;180.50;;
6223;SDS011;3145;42.726;23.342;2023-12-20T00:47:02;482.37;;;188.37;;
6223;SDS011;3145;42.726;23.342;2023-12-20T00:49:29;511.67;;;191.30;;
6223;SDS011;3145;42.726;23.342;2023-12-20T00:51:57;457.60;;;180.53;;
6223;SDS011;3145;42.726;23.342;2023-12-20T00:54:24;471.33;;;164.53;;
6223;SDS011;3145;42.726;23.342;2023-12-20T00:56:51;458.57;;;155.83;;
6223;SDS011;3145;42.726;23.342;2023-12-20T00:59:17;442.77;;;151.10;;
6223;SDS011;3145;42.726;23.342;2023-12-20T01:01:45;385.77;;;137.80;;
6223;SDS011;3145;42.726;23.342;2023-12-20T01:04:12;387.20;;;136.70;;
6223;SDS011;3145;42.726;23.342;2023-12-20T01:06:39;343.20;;;128.20;;
6223;SDS011;3145;42.726;23.342;2023-12-20T01:09:07;339.83;;;136.10;;
6223;SDS011;3145;42.726;23.342;2023-12-20T01:11:33;452.60;;;150.87;;
6223;SDS011;3145;42.726;23.342;2023-12-20T01:14:00;420.67;;;154.17;;
6223;SDS011;3145;42.726;23.342;2023-12-20T01:16:27;532.13;;;171.40;;
6223;SDS011;3145;42.726;23.342;2023-12-20T01:18:53;386.47;;;144.87;;
6223;SDS011;3145;42.726;23.342;2023-12-20T01:21:20;332.83;;;135.70;;
6223;SDS011;3145;42.726;23.342;2023-12-20T01:23:47;372.27;;;140.90;;
6223;SDS011;3145;42.726;23.342;2023-12-20T01:26:15;341.00;;;134.20;;
6223;SDS011;3145;42.726;23.342;2023-12-20T01:28:42;355.77;;;136.37;;
6223;SDS011;3145;42.726;23.342;2023-12-20T01:31:09;313.77;;;124.83;;
6223;SDS011;3145;42.726;23.342;2023-12-20T01:33:36;345.70;;;133.00;;
6223;SDS011;3145;42.726;23.342;2023-12-20T01:36:02;309.33;;;135.50;;
6223;SDS011;3145;42.726;23.342;2023-12-20T01:38:30;345.53;;;135.80;;
6223;SDS011;3145;42.726;23.342;2023-12-20T01:40:57;385.70;;;142.77;;
6223;SDS011;3145;42.726;23.342;2023-12-20T01:43:25;370.80;;;144.83;;
6223;SDS011;3145;42.726;23.342;2023-12-20T01:45:52;339.67;;;141.90;;
6223;SDS011;3145;42.726;23.342;2023-12-20T01:48:19;312.33;;;127.63;;
6223;SDS011;3145;42.726;23.342;2023-12-20T01:50:46;250.50;;;112.47;;
6223;SDS011;3145;42.726;23.342;2023-12-20T01:53:14;324.73;;;116.07;;
6223;SDS011;3145;42.726;23.342;2023-12-20T01:55:42;287.77;;;108.00;;
6223;SDS011;3145;42.726;23.342;2023-12-20T01:58:10;311.83;;;102.60;;
6223;SDS011;3145;42.726;23.342;2023-12-20T02:00:39;188.30;;;82.00;;
6223;SDS011;3145;42.726;23.342;2023-12-20T02:03:07;203.07;;;76.57;;
6223;SDS011;3145;42.726;23.342;2023-12-20T02:05:34;210.00;;;82.33;;
6223;SDS011;3145;42.726;23.342;2023-12-20T02:08:02;208.50;;;76.27;;
6223;SDS011;3145;42.726;23.342;2023-12-20T02:10:29;259.57;;;78.53;;
6223;SDS011;3145;42.726;23.342;2023-12-20T02:12:56;195.60;;;71.07;;
6223;SDS011;3145;42.726;23.342;2023-12-20T02:15:23;193.90;;;62.23;;
6223;SDS011;3145;42.726;23.342;2023-12-20T02:17:52;242.50;;;63.93;;
6223;SDS011;3145;42.726;23.342;2023-12-20T02:20:19;212.43;;;60.30;;
6223;SDS011;3145;42.726;23.342;2023-12-20T02:22:47;168.20;;;58.37;;
6223;SDS011;3145;42.726;23.342;2023-12-20T02:25:14;157.57;;;57.67;;
6223;SDS011;3145;42.726;23.342;2023-12-20T02:27:41;203.90;;;59.67;;
6223;SDS011;3145;42.726;23.342;2023-12-20T02:30:08;227.80;;;57.17;;
6223;SDS011;3145;42.726;23.342;2023-12-20T02:32:36;212.33;;;56.13;;
6223;SDS011;3145;42.726;23.342;2023-12-20T02:35:03;226.73;;;57.73;;
6223;SDS011;3145;42.726;23.342;2023-12-20T02:37:30;187.03;;;62.27;;
6223;SDS011;3145;42.726;23.342;2023-12-20T02:39:58;212.07;;;62.03;;
6223;SDS011;3145;42.726;23.342;2023-12-20T02:42:25;246.33;;;60.87;;
6223;SDS011;3145;42.726;23.342;2023-12-20T02:44:51;218.77;;;60.20;;
6223;SDS011;3145;42.726;23.342;2023-12-20T02:47:18;275.03;;;62.37;;
6223;SDS011;3145;42.726;23.342;2023-12-20T02:49:45;151.17;;;53.80;;
6223;SDS011;3145;42.726;23.342;2023-12-20T02:52:11;155.97;;;55.97;;
6223;SDS011;3145;42.726;23.342;2023-12-20T02:54:38;147.10;;;58.40;;
6223;SDS011;3145;42.726;23.342;2023-12-20T02:57:06;191.43;;;60.07;;
6223;SDS011;3145;42.726;23.342;2023-12-20T02:59:33;150.33;;;58.00;;
6223;SDS011;3145;42.726;23.342;2023-12-20T03:01:59;145.63;;;56.90;;
6223;SDS011;3145;42.726;23.342;2023-12-20T03:04:26;226.07;;;63.90;;
6223;SDS011;3145;42.726;23.342;2023-12-20T03:06:53;234.77;;;61.33;;
6223;SDS011;3145;42.726;23.342;2023-12-20T03:09:20;244.53;;;70.23;;
6223;SDS011;3145;42.726;23.342;2023-12-20T03:11:46;119.80;;;56.33;;
6223;SDS011;3145;42.726;23.342;2023-12-20T03:14:14;263.47;;;68.53;;
6223;SDS011;3145;42.726;23.342;2023-12-20T03:16:41;133.73;;;57.07;;
6223;SDS011;3145;42.726;23.342;2023-12-20T03:19:08;295.00;;;68.43;;
6223;SDS011;3145;42.726;23.342;2023-12-20T03:21:34;200.00;;;62.87;;
6223;SDS011;3145;42.726;23.342;2023-12-20T03:24:01;240.73;;;65.43;;
6223;SDS011;3145;42.726;23.342;2023-12-20T03:26:28;174.37;;;61.03;;
6223;SDS011;3145;42.726;23.342;2023-12-20T03:28:54;191.73;;;53.80;;
6223;SDS011;3145;42.726;23.342;2023-12-20T03:31:22;304.67;;;57.43;;
6223;SDS011;3145;42.726;23.342;2023-12-20T03:33:49;177.47;;;55.53;;
6223;SDS011;3145;42.726;23.342;2023-12-20T03:36:17;212.57;;;55.30;;
6223;SDS011;3145;42.726;23.342;2023-12-20T03:38:43;215.93;;;56.80;;
6223;SDS011;3145;42.726;23.342;2023-12-20T03:41:10;151.17;;;54.10;;
6223;SDS011;3145;42.726;23.342;2023-12-20T03:43:37;176.57;;;52.90;;
6223;SDS011;3145;42.726;23.342;2023-12-20T03:46:04;168.53;;;54.17;;
6223;SDS011;3145;42.726;23.342;2023-12-20T03:48:32;233.53;;;57.83;;
6223;SDS011;3145;42.726;23.342;2023-12-20T03:50:59;257.87;;;64.03;;
6223;SDS011;3145;42.726;23.342;2023-12-20T03:53:25;154.40;;;58.97;;
6223;SDS011;3145;42.726;23.342;2023-12-20T03:55:52;167.43;;;53.97;;
6223;SDS011;3145;42.726;23.342;2023-12-20T03:58:19;167.73;;;58.17;;
6223;SDS011;3145;42.726;23.342;2023-12-20T04:00:46;171.93;;;61.37;;
6223;SDS011;3145;42.726;23.342;2023-12-20T04:03:12;110.13;;;53.27;;
6223;SDS011;3145;42.726;23.342;2023-12-20T04:05:40;229.73;;;63.23;;
6223;SDS011;3145;42.726;23.342;2023-12-20T04:08:07;159.07;;;58.27;;
6223;SDS011;3145;42.726;23.342;2023-12-20T04:10:35;240.37;;;65.20;;
6223;SDS011;3145;42.726;23.342;2023-12-20T04:13:02;260.90;;;65.27;;
6223;SDS011;3145;42.726;23.342;2023-12-20T04:15:29;173.93;;;67.23;;
6223;SDS011;3145;42.726;23.342;2023-12-20T04:17:56;234.77;;;71.10;;
6223;SDS011;3145;42.726;23.342;2023-12-20T04:20:23;171.53;;;62.97;;
6223;SDS011;3145;42.726;23.342;2023-12-20T04:22:51;173.33;;;68.00;;
6223;SDS011;3145;42.726;23.342;2023-12-20T04:25:17;220.57;;;67.13;;
6223;SDS011;3145;42.726;23.342;2023-12-20T04:27:44;176.87;;;68.70;;
6223;SDS011;3145;42.726;23.342;2023-12-20T04:30:11;184.93;;;75.67;;
6223;SDS011;3145;42.726;23.342;2023-12-20T04:32:38;202.07;;;70.47;;
6223;SDS011;3145;42.726;23.342;2023-12-20T04:35:05;178.27;;;69.67;;
6223;SDS011;3145;42.726;23.342;2023-12-20T04:37:33;246.83;;;76.43;;
6223;SDS011;3145;42.726;23.342;2023-12-20T04:40:01;228.23;;;85.13;;
6223;SDS011;3145;42.726;23.342;2023-12-20T04:42:30;210.57;;;81.87;;
6223;SDS011;3145;42.726;23.342;2023-12-20T04:44:57;231.63;;;78.33;;
6223;SDS011;3145;42.726;23.342;2023-12-20T04:47:23;240.93;;;82.93;;
6223;SDS011;3145;42.726;23.342;2023-12-20T04:49:50;269.33;;;85.37;;
6223;SDS011;3145;42.726;23.342;2023-12-20T04:52:17;321.10;;;85.67;;
6223;SDS011;3145;42.726;23.342;2023-12-20T04:54:44;302.70;;;85.43;;
6223;SDS011;3145;42.726;23.342;2023-12-20T04:57:12;279.83;;;84.67;;
6223;SDS011;3145;42.726;23.342;2023-12-20T04:59:38;274.57;;;87.60;;
6223;SDS011;3145;42.726;23.342;2023-12-20T05:02:06;293.77;;;85.23;;
6223;SDS011;3145;42.726;23.342;2023-12-20T05:04:32;257.90;;;74.17;;
6223;SDS011;3145;42.726;23.342;2023-12-20T05:06:59;216.27;;;77.70;;
6223;SDS011;3145;42.726;23.342;2023-12-20T05:09:26;299.73;;;69.33;;
6223;SDS011;3145;42.726;23.342;2023-12-20T05:11:52;323.87;;;72.70;;
6223;SDS011;3145;42.726;23.342;2023-12-20T05:14:20;293.30;;;68.13;;
6223;SDS011;3145;42.726;23.342;2023-12-20T05:16:47;213.87;;;66.83;;
6223;SDS011;3145;42.726;23.342;2023-12-20T05:19:14;224.40;;;67.73;;
6223;SDS011;3145;42.726;23.342;2023-12-20T05:21:40;346.57;;;83.23;;
6223;SDS011;3145;42.726;23.342;2023-12-20T05:24:07;451.17;;;85.40;;
6223;SDS011;3145;42.726;23.342;2023-12-20T05:26:34;405.47;;;95.73;;
6223;SDS011;3145;42.726;23.342;2023-12-20T05:29:00;389.40;;;97.50;;
6223;SDS011;3145;42.726;23.342;2023-12-20T05:31:28;344.37;;;99.03;;
6223;SDS011;3145;42.726;23.342;2023-12-20T05:33:55;393.10;;;94.13;;
6223;SDS011;3145;42.726;23.342;2023-12-20T05:36:22;292.77;;;87.20;;
6223;SDS011;3145;42.726;23.342;2023-12-20T05:38:48;240.73;;;91.53;;
6223;SDS011;3145;42.726;23.342;2023-12-20T05:41:16;346.20;;;97.50;;
6223;SDS011;3145;42.726;23.342;2023-12-20T05:43:42;404.50;;;98.67;;
6223;SDS011;3145;42.726;23.342;2023-12-20T05:46:09;233.97;;;82.90;;
6223;SDS011;3145;42.726;23.342;2023-12-20T05:48:38;311.47;;;90.37;;
6223;SDS011;3145;42.726;23.342;2023-12-20T05:51:05;315.90;;;90.17;;
6223;SDS011;3145;42.726;23.342;2023-12-20T05:53:31;262.97;;;80.47;;
6223;SDS011;3145;42.726;23.342;2023-12-20T05:55:58;293.83;;;91.10;;
6223;SDS011;3145;42.726;23.342;2023-12-20T05:58:25;311.17;;;91.83;;
6223;SDS011;3145;42.726;23.342;2023-12-20T06:00:52;314.00;;;90.07;;
6223;SDS011;3145;42.726;23.342;2023-12-20T06:03:19;362.70;;;96.37;;
6223;SDS011;3145;42.726;23.342;2023-12-20T06:05:47;371.63;;;96.83;;
6223;SDS011;3145;42.726;23.342;2023-12-20T06:08:13;339.00;;;98.17;;
6223;SDS011;3145;42.726;23.342;2023-12-20T06:10:40;339.10;;;95.20;;
6223;SDS011;3145;42.726;23.342;2023-12-20T06:13:07;286.63;;;93.10;;
6223;SDS011;3145;42.726;23.342;2023-12-20T06:15:33;256.07;;;98.37;;
6223;SDS011;3145;42.726;23.342;2023-12-20T06:18:00;355.13;;;96.07;;
6223;SDS011;3145;42.726;23.342;2023-12-20T06:20:28;284.17;;;94.60;;
6223;SDS011;3145;42.726;23.342;2023-12-20T06:22:56;332.37;;;100.77;;
6223;SDS011;3145;42.726;23.342;2023-12-20T06:25:23;351.63;;;101.77;;
6223;SDS011;3145;42.726;23.342;2023-12-20T06:27:49;325.47;;;98.23;;
6223;SDS011;3145;42.726;23.342;2023-12-20T06:30:16;435.57;;;107.30;;
6223;SDS011;3145;42.726;23.342;2023-12-20T06:32:43;228.13;;;90.47;;
6223;SDS011;3145;42.726;23.342;2023-12-20T06:35:12;260.13;;;87.47;;
6223;SDS011;3145;42.726;23.342;2023-12-20T06:37:38;361.13;;;94.30;;
6223;SDS011;3145;42.726;23.342;2023-12-20T06:40:09;229.17;;;85.73;;
6223;SDS011;3145;42.726;23.342;2023-12-20T06:42:36;239.00;;;86.80;;
6223;SDS011;3145;42.726;23.342;2023-12-20T06:45:04;388.07;;;101.50;;
6223;SDS011;3145;42.726;23.342;2023-12-20T06:47:31;248.67;;;94.97;;
6223;SDS011;3145;42.726;23.342;2023-12-20T06:49:58;200.33;;;79.77;;
6223;SDS011;3145;42.726;23.342;2023-12-20T06:52:24;325.10;;;97.73;;
6223;SDS011;3145;42.726;23.342;2023-12-20T06:54:51;294.80;;;95.13;;
6223;SDS011;3145;42.726;23.342;2023-12-20T06:57:19;344.80;;;103.33;;
6223;SDS011;3145;42.726;23.342;2023-12-20T06:59:46;258.27;;;96.47;;
6223;SDS011;3145;42.726;23.342;2023-12-20T07:02:12;268.50;;;90.80;;
6223;SDS011;3145;42.726;23.342;2023-12-20T07:04:39;279.17;;;95.93;;
6223;SDS011;3145;42.726;23.342;2023-12-20T07:07:06;349.97;;;102.23;;
6223;SDS011;3145;42.726;23.342;2023-12-20T07:09:33;318.10;;;92.83;;
6223;SDS011;3145;42.726;23.342;2023-12-20T07:11:59;285.70;;;98.10;;
6223;SDS011;3145;42.726;23.342;2023-12-20T07:14:27;313.63;;;99.50;;
6223;SDS011;3145;42.726;23.342;2023-12-20T07:16:54;312.67;;;98.37;;
6223;SDS011;3145;42.726;23.342;2023-12-20T07:19:21;211.97;;;83.70;;
6223;SDS011;3145;42.726;23.342;2023-12-20T07:21:48;354.27;;;106.37;;
6223;SDS011;3145;42.726;23.342;2023-12-20T07:24:14;302.83;;;108.20;;
6223;SDS011;3145;42.726;23.342;2023-12-20T07:26:41;385.83;;;109.17;;
6223;SDS011;3145;42.726;23.342;2023-12-20T07:29:08;295.40;;;96.30;;
6223;SDS011;3145;42.726;23.342;2023-12-20T07:31:36;330.53;;;104.33;;
6223;SDS011;3145;42.726;23.342;2023-12-20T07:34:03;363.73;;;105.07;;
6223;SDS011;3145;42.726;23.342;2023-12-20T07:36:30;371.27;;;100.67;;
6223;SDS011;3145;42.726;23.342;2023-12-20T07:38:57;351.07;;;103.23;;
6223;SDS011;3145;42.726;23.342;2023-12-20T07:41:23;296.67;;;107.77;;
6223;SDS011;3145;42.726;23.342;2023-12-20T07:43:50;304.53;;;104.07;;
6223;SDS011;3145;42.726;23.342;2023-12-20T07:46:18;261.50;;;103.60;;
6223;SDS011;3145;42.726;23.342;2023-12-20T07:48:49;276.30;;;106.60;;
6223;SDS011;3145;42.726;23.342;2023-12-20T07:51:15;282.17;;;104.27;;
6223;SDS011;3145;42.726;23.342;2023-12-20T07:53:42;309.90;;;109.57;;
6223;SDS011;3145;42.726;23.342;2023-12-20T07:56:15;310.53;;;112.37;;
6223;SDS011;3145;42.726;23.342;2023-12-20T07:58:42;260.77;;;106.73;;
6223;SDS011;3145;42.726;23.342;2023-12-20T08:01:10;288.57;;;111.60;;
6223;SDS011;3145;42.726;23.342;2023-12-20T08:03:37;300.90;;;118.77;;
6223;SDS011;3145;42.726;23.342;2023-12-20T08:06:05;260.23;;;121.60;;
6223;SDS011;3145;42.726;23.342;2023-12-20T08:08:32;270.77;;;128.43;;
6223;SDS011;3145;42.726;23.342;2023-12-20T08:10:58;287.53;;;129.97;;
6223;SDS011;3145;42.726;23.342;2023-12-20T08:13:25;278.53;;;125.40;;
6223;SDS011;3145;42.726;23.342;2023-12-20T08:15:52;296.90;;;127.03;;
6223;SDS011;3145;42.726;23.342;2023-12-20T08:18:21;319.27;;;122.13;;
6223;SDS011;3145;42.726;23.342;2023-12-20T08:20:47;271.27;;;112.43;;
6223;SDS011;3145;42.726;23.342;2023-12-20T08:23:16;266.30;;;113.77;;
6223;SDS011;3145;42.726;23.342;2023-12-20T08:25:42;324.70;;;115.40;;
6223;SDS011;3145;42.726;23.342;2023-12-20T08:28:09;273.47;;;111.07;;
6223;SDS011;3145;42.726;23.342;2023-12-20T08:30:37;286.60;;;116.47;;
6223;SDS011;3145;42.726;23.342;2023-12-20T08:33:04;308.13;;;119.90;;
6223;SDS011;3145;42.726;23.342;2023-12-20T08:35:33;270.70;;;120.03;;
6223;SDS011;3145;42.726;23.342;2023-12-20T08:37:59;283.37;;;120.33;;
6223;SDS011;3145;42.726;23.342;2023-12-20T08:40:27;259.80;;;116.93;;
6223;SDS011;3145;42.726;23.342;2023-12-20T08:42:54;261.60;;;117.37;;
6223;SDS011;3145;42.726;23.342;2023-12-20T08:45:21;293.73;;;125.63;;
6223;SDS011;3145;42.726;23.342;2023-12-20T08:47:47;351.83;;;133.13;;
6223;SDS011;3145;42.726;23.342;2023-12-20T08:50:14;292.63;;;129.97;;
6223;SDS011;3145;42.726;23.342;2023-12-20T08:52:41;321.27;;;144.50;;
6223;SDS011;3145;42.726;23.342;2023-12-20T08:55:08;317.60;;;142.37;;
6223;SDS011;3145;42.726;23.342;2023-12-20T08:57:37;269.97;;;132.43;;
6223;SDS011;3145;42.726;23.342;2023-12-20T09:00:04;303.77;;;133.63;;
6223;SDS011;3145;42.726;23.342;2023-12-20T09:02:32;302.43;;;134.43;;
6223;SDS011;3145;42.726;23.342;2023-12-20T09:05:01;276.73;;;123.97;;
6223;SDS011;3145;42.726;23.342;2023-12-20T09:07:28;259.43;;;125.10;;
6223;SDS011;3145;42.726;23.342;2023-12-20T09:09:56;263.07;;;128.80;;
6223;SDS011;3145;42.726;23.342;2023-12-20T09:12:23;304.40;;;134.80;;
6223;SDS011;3145;42.726;23.342;2023-12-20T09:14:51;288.27;;;131.63;;
6223;SDS011;3145;42.726;23.342;2023-12-20T09:17:18;297.83;;;137.70;;
6223;SDS011;3145;42.726;23.342;2023-12-20T09:19:45;325.17;;;144.30;;
6223;SDS011;3145;42.726;23.342;2023-12-20T09:22:12;303.50;;;139.63;;
6223;SDS011;3145;42.726;23.342;2023-12-20T09:24:39;287.17;;;130.97;;
6223;SDS011;3145;42.726;23.342;2023-12-20T09:27:05;285.83;;;131.07;;
6223;SDS011;3145;42.726;23.342;2023-12-20T09:29:32;317.60;;;139.90;;
6223;SDS011;3145;42.726;23.342;2023-12-20T09:32:01;294.70;;;137.37;;
6223;SDS011;3145;42.726;23.342;2023-12-20T09:34:27;291.27;;;133.40;;
6223;SDS011;3145;42.726;23.342;2023-12-20T09:36:54;296.13;;;136.27;;
6223;SDS011;3145;42.726;23.342;2023-12-20T09:39:21;315.43;;;138.20;;
6223;SDS011;3145;42.726;23.342;2023-12-20T09:41:49;300.80;;;135.60;;
6223;SDS011;3145;42.726;23.342;2023-12-20T09:44:24;311.80;;;135.03;;
6223;SDS011;3145;42.726;23.342;2023-12-20T09:46:50;303.17;;;132.13;;
6223;SDS011;3145;42.726;23.342;2023-12-20T09:49:20;288.93;;;126.93;;
6223;SDS011;3145;42.726;23.342;2023-12-20T09:51:48;314.60;;;135.23;;
6223;SDS011;3145;42.726;23.342;2023-12-20T09:54:17;309.80;;;131.90;;
6223;SDS011;3145;42.726;23.342;2023-12-20T09:56:44;302.50;;;127.10;;
6223;SDS011;3145;42.726;23.342;2023-12-20T09:59:11;287.37;;;122.77;;
6223;SDS011;3145;42.726;23.342;2023-12-20T10:01:39;277.50;;;120.60;;
6223;SDS011;3145;42.726;23.342;2023-12-20T10:04:07;281.07;;;122.73;;
6223;SDS011;3145;42.726;23.342;2023-12-20T10:06:38;268.00;;;123.60;;
6223;SDS011;3145;42.726;23.342;2023-12-20T10:09:05;275.80;;;120.70;;
6223;SDS011;3145;42.726;23.342;2023-12-20T10:11:32;251.43;;;107.83;;
6223;SDS011;3145;42.726;23.342;2023-12-20T10:14:02;253.10;;;107.80;;
6223;SDS011;3145;42.726;23.342;2023-12-20T10:16:29;239.17;;;106.13;;
6223;SDS011;3145;42.726;23.342;2023-12-20T10:18:57;259.93;;;112.63;;
6223;SDS011;3145;42.726;23.342;2023-12-20T10:21:25;260.30;;;109.23;;
6223;SDS011;3145;42.726;23.342;2023-12-20T10:23:53;263.83;;;114.17;;
6223;SDS011;3145;42.726;23.342;2023-12-20T10:26:21;229.57;;;99.23;;
6223;SDS011;3145;42.726;23.342;2023-12-20T10:28:49;234.97;;;94.30;;
6223;SDS011;3145;42.726;23.342;2023-12-20T10:31:26;227.20;;;102.37;;
6223;SDS011;3145;42.726;23.342;2023-12-20T10:33:55;262.27;;;116.20;;
6223;SDS011;3145;42.726;23.342;2023-12-20T10:36:23;252.67;;;109.07;;
6223;SDS011;3145;42.726;23.342;2023-12-20T10:38:51;266.70;;;120.30;;
6223;SDS011;3145;42.726;23.342;2023-12-20T10:41:21;288.33;;;122.73;;
6223;SDS011;3145;42.726;23.342;2023-12-20T10:43:53;276.47;;;117.23;;
6223;SDS011;3145;42.726;23.342;2023-12-20T10:46:21;243.60;;;107.73;;
6223;SDS011;3145;42.726;23.342;2023-12-20T10:48:48;242.93;;;110.53;;
6223;SDS011;3145;42.726;23.342;2023-12-20T10:51:18;252.17;;;109.30;;
6223;SDS011;3145;42.726;23.342;2023-12-20T10:53:45;248.30;;;106.93;;
6223;SDS011;3145;42.726;23.342;2023-12-20T10:56:15;258.77;;;110.33;;
6223;SDS011;3145;42.726;23.342;2023-12-20T10:58:44;240.23;;;92.57;;
6223;SDS011;3145;42.726;23.342;2023-12-20T11:01:12;238.93;;;88.43;;
6223;SDS011;3145;42.726;23.342;2023-12-20T11:03:39;237.00;;;88.47;;
6223;SDS011;3145;42.726;23.342;2023-12-20T11:06:13;243.20;;;87.03;;
6223;SDS011;3145;42.726;23.342;2023-12-20T11:08:51;245.87;;;81.27;;
6223;SDS011;3145;42.726;23.342;2023-12-20T11:11:35;208.77;;;80.03;;
6223;SDS011;3145;42.726;23.342;2023-12-20T11:14:11;242.83;;;84.93;;
6223;SDS011;3145;42.726;23.342;2023-12-20T11:16:42;237.90;;;86.93;;
6223;SDS011;3145;42.726;23.342;2023-12-20T11:19:09;241.47;;;92.17;;
6223;SDS011;3145;42.726;23.342;2023-12-20T11:21:39;333.53;;;84.07;;
6223;SDS011;3145;42.726;23.342;2023-12-20T11:24:06;229.20;;;86.97;;
6223;SDS011;3145;42.726;23.342;2023-12-20T11:26:32;301.73;;;85.20;;
6223;SDS011;3145;42.726;23.342;2023-12-20T11:31:57;219.90;;;75.83;;
6223;SDS011;3145;42.726;23.342;2023-12-20T11:34:26;245.63;;;86.73;;
6223;SDS011;3145;42.726;23.342;2023-12-20T11:36:56;264.57;;;78.97;;
6223;SDS011;3145;42.726;23.342;2023-12-20T11:39:24;293.87;;;92.07;;
6223;SDS011;3145;42.726;23.342;2023-12-20T11:41:53;252.40;;;84.23;;
6223;SDS011;3145;42.726;23.342;2023-12-20T11:44:21;232.23;;;76.53;;
6223;SDS011;3145;42.726;23.342;2023-12-20T11:46:49;217.93;;;84.20;;
6223;SDS011;3145;42.726;23.342;2023-12-20T11:49:16;313.47;;;89.33;;
6223;SDS011;3145;42.726;23.342;2023-12-20T11:51:43;265.30;;;93.37;;
6223;SDS011;3145;42.726;23.342;2023-12-20T11:54:10;288.13;;;88.43;;
6223;SDS011;3145;42.726;23.342;2023-12-20T11:56:37;313.43;;;80.90;;
6223;SDS011;3145;42.726;23.342;2023-12-20T11:59:04;233.03;;;77.40;;
6223;SDS011;3145;42.726;23.342;2023-12-20T12:01:31;282.77;;;82.93;;
6223;SDS011;3145;42.726;23.342;2023-12-20T12:04:05;254.77;;;82.47;;
6223;SDS011;3145;42.726;23.342;2023-12-20T12:06:33;306.70;;;81.70;;
6223;SDS011;3145;42.726;23.342;2023-12-20T12:09:00;292.27;;;90.27;;
6223;SDS011;3145;42.726;23.342;2023-12-20T12:11:29;315.40;;;84.13;;
6223;SDS011;3145;42.726;23.342;2023-12-20T12:13:56;299.60;;;80.67;;
6223;SDS011;3145;42.726;23.342;2023-12-20T12:16:22;220.57;;;81.83;;
6223;SDS011;3145;42.726;23.342;2023-12-20T12:18:55;278.00;;;84.73;;
6223;SDS011;3145;42.726;23.342;2023-12-20T12:21:23;283.60;;;87.23;;
6223;SDS011;3145;42.726;23.342;2023-12-20T12:23:50;244.87;;;81.27;;
6223;SDS011;3145;42.726;23.342;2023-12-20T12:26:18;202.50;;;82.03;;
6223;SDS011;3145;42.726;23.342;2023-12-20T12:28:45;236.40;;;82.97;;
6223;SDS011;3145;42.726;23.342;2023-12-20T12:31:15;187.97;;;79.40;;
6223;SDS011;3145;42.726;23.342;2023-12-20T12:33:41;238.43;;;86.67;;
6223;SDS011;3145;42.726;23.342;2023-12-20T12:36:09;193.60;;;81.57;;
6223;SDS011;3145;42.726;23.342;2023-12-20T12:38:37;290.83;;;80.20;;
6223;SDS011;3145;42.726;23.342;2023-12-20T12:41:04;307.23;;;87.67;;
6223;SDS011;3145;42.726;23.342;2023-12-20T12:43:32;323.50;;;84.17;;
6223;SDS011;3145;42.726;23.342;2023-12-20T12:45:59;276.37;;;92.77;;
6223;SDS011;3145;42.726;23.342;2023-12-20T12:48:26;259.47;;;74.27;;
6223;SDS011;3145;42.726;23.342;2023-12-20T12:50:53;254.53;;;88.80;;
6223;SDS011;3145;42.726;23.342;2023-12-20T12:53:24;329.07;;;78.00;;
6223;SDS011;3145;42.726;23.342;2023-12-20T12:55:52;247.73;;;89.53;;
6223;SDS011;3145;42.726;23.342;2023-12-20T12:58:19;259.43;;;77.63;;
6223;SDS011;3145;42.726;23.342;2023-12-20T13:00:47;273.70;;;79.10;;
6223;SDS011;3145;42.726;23.342;2023-12-20T13:03:13;346.70;;;76.37;;
6223;SDS011;3145;42.726;23.342;2023-12-20T13:05:39;280.03;;;75.93;;
6223;SDS011;3145;42.726;23.342;2023-12-20T13:08:06;337.57;;;72.33;;
6223;SDS011;3145;42.726;23.342;2023-12-20T13:10:34;364.93;;;77.83;;
6223;SDS011;3145;42.726;23.342;2023-12-20T13:13:02;326.37;;;73.53;;
6223;SDS011;3145;42.726;23.342;2023-12-20T13:15:29;486.47;;;80.73;;
6223;SDS011;3145;42.726;23.342;2023-12-20T13:17:56;270.20;;;67.20;;
6223;SDS011;3145;42.726;23.342;2023-12-20T13:20:23;515.73;;;79.13;;
6223;SDS011;3145;42.726;23.342;2023-12-20T13:22:50;528.23;;;86.70;;
6223;SDS011;3145;42.726;23.342;2023-12-20T13:25:16;465.30;;;91.03;;
6223;SDS011;3145;42.726;23.342;2023-12-20T13:27:43;418.10;;;79.97;;
6223;SDS011;3145;42.726;23.342;2023-12-20T13:30:12;467.83;;;76.60;;
6223;SDS011;3145;42.726;23.342;2023-12-20T13:32:39;433.97;;;66.40;;
6223;SDS011;3145;42.726;23.342;2023-12-20T13:35:06;369.60;;;70.47;;
6223;SDS011;3145;42.726;23.342;2023-12-20T13:37:33;478.73;;;79.90;;
6223;SDS011;3145;42.726;23.342;2023-12-20T13:40:00;427.83;;;74.30;;
6223;SDS011;3145;42.726;23.342;2023-12-20T13:42:28;438.53;;;72.97;;
6223;SDS011;3145;42.726;23.342;2023-12-20T13:44:55;347.07;;;74.60;;
6223;SDS011;3145;42.726;23.342;2023-12-20T13:47:23;577.13;;;79.07;;
6223;SDS011;3145;42.726;23.342;2023-12-20T13:49:49;499.57;;;72.93;;
6223;SDS011;3145;42.726;23.342;2023-12-20T13:52:16;405.63;;;70.47;;
6223;SDS011;3145;42.726;23.342;2023-12-20T13:54:43;574.03;;;83.20;;
6223;SDS011;3145;42.726;23.342;2023-12-20T13:57:10;353.77;;;75.77;;
6223;SDS011;3145;42.726;23.342;2023-12-20T13:59:37;360.27;;;78.57;;
6223;SDS011;3145;42.726;23.342;2023-12-20T14:02:04;502.00;;;87.83;;
6223;SDS011;3145;42.726;23.342;2023-12-20T14:04:32;294.97;;;75.43;;
6223;SDS011;3145;42.726;23.342;2023-12-20T14:06:59;267.30;;;80.53;;
6223;SDS011;3145;42.726;23.342;2023-12-20T14:09:25;401.33;;;83.40;;
6223;SDS011;3145;42.726;23.342;2023-12-20T14:11:52;362.00;;;76.87;;
6223;SDS011;3145;42.726;23.342;2023-12-20T14:14:20;279.27;;;75.10;;
6223;SDS011;3145;42.726;23.342;2023-12-20T14:16:46;375.70;;;80.53;;
6223;SDS011;3145;42.726;23.342;2023-12-20T14:19:13;337.50;;;80.67;;